Aeroboteco Virtual Airline

Aeroboteco Virtual Airlines! Uma nuvem a frente.



 INFORMAÇÕES METEOROLÓGICAS
METAR FOR SCIC
ADDS - METARS form results

(1246 UTC 17 January 2019)
Data provider http://aviationweather.gov/metar/data/
 
METAR text: SCIC 171200Z 19008KT 9999 FEW040 SCT100 15/08 Q1018
Conditions at: SCIC (CURICO/GEN FREIR, CL) observed 1200 UTC 17 January 2019
Temperature: 15.0°C (59°F)
Dewpoint: 8.0°C (46°F) [RH = 63%]
Pressure (altimeter): 30.06 inches Hg (1018.0 mb)
Winds: from the S (190 degrees) at 9 MPH (8 knots; 4.1 m/s)
Visibility: 6 or more miles (10+ km)
Ceiling: at least 12,000 feet AGL
Clouds: few clouds at 4000 feet AGL
scattered clouds at 10000 feet AGL
Weather: no significant weather observed at this time

 MAPA DO AEROPORTO

 INFORMAÇÕES DA PISTA
Pista 1 Tamanho da pista 2625 ft Largura da pista 59 ft
Elevação da pista 0 ft Ranhura da pista 0 ft Proa da pista 0
Pista 19 Tamanho da pista 2625 ft Largura da pista 59 ft
Elevação da pista 0 ft Ranhura da pista 0 ft Proa da pista 0

 FREQUÊNCIAS DO AEROPORTO

 AUXÍLIOS DE NAVEGAÇÃO PRÓXIMOS AO AEROPORTO
Tipo VOR-DME Nome Curico Frequência 114700 KHZ
Tipo NDB Nome Curico Frequência 270 KHZ